Time;durP1;ratioP1;P1;durP2;ratioP2;P2;SDS_P1;SDS_P2;PMS_P1;PMS_P2;Temp;Humidity;BMP_temperature;BMP_pressure;BME280_temperature;BME280_humidity;BME280_pressure;Samples;Min_cycle;Max_cycle;Signal;HPM_P1;HPM_P2
2022/06/15 00:00:59;;;;;;;5.23;2.30;;;;;;;9.73;74.10;96103.43;1779996;80;21011;-65
2022/06/15 00:03:30;;;;;;;3.43;2.10;;;;;;;9.71;74.85;96097.29;1779452;81;20983;-65
2022/06/15 00:06:10;;;;;;;2.87;2.07;;;;;;;9.72;74.95;96100.34;1780093;81;21047;-65
2022/06/15 00:08:39;;;;;;;5.47;2.30;;;;;;;9.70;74.03;96098.19;1779908;81;21000;-65
2022/06/15 00:11:17;;;;;;;2.60;2.27;;;;;;;9.62;75.43;96095.16;1779645;81;20999;-65
2022/06/15 00:13:45;;;;;;;3.20;2.70;;;;;;;9.57;74.83;96086.41;1780066;81;21008;-65
2022/06/15 00:16:13;;;;;;;2.90;2.60;;;;;;;9.54;75.27;96089.49;1783271;80;21042;-65
2022/06/15 00:18:40;;;;;;;5.50;2.60;;;;;;;9.54;75.41;96081.59;1787160;80;21003;-65
2022/06/15 00:21:07;;;;;;;2.90;2.50;;;;;;;9.49;76.17;96086.02;1787016;80;21036;-65
2022/06/15 00:23:35;;;;;;;4.97;2.63;;;;;;;9.48;75.60;96092.63;1787172;80;21007;-65
2022/06/15 00:26:04;;;;;;;2.90;2.57;;;;;;;9.45;75.91;96086.04;1787333;80;20987;-65
2022/06/15 00:28:31;;;;;;;4.00;2.47;;;;;;;9.44;75.14;96080.34;1787072;80;21484;-65
2022/06/15 00:30:59;;;;;;;3.17;2.27;;;;;;;9.43;75.14;96088.70;1786874;80;21018;-65
2022/06/15 00:33:27;;;;;;;3.73;2.90;;;;;;;9.36;74.41;96088.75;1787027;80;20983;-65
2022/06/15 00:35:58;;;;;;;4.10;2.30;;;;;;;9.29;74.97;96080.87;1787185;80;21528;-65
2022/06/15 00:38:44;;;;;;;4.70;2.67;;;;;;;9.20;75.48;96082.70;1787187;80;21019;-65
2022/06/15 00:41:19;;;;;;;4.63;3.60;;;;;;;9.08;76.05;96084.50;1787263;80;21014;-65
2022/06/15 00:43:50;;;;;;;5.03;2.87;;;;;;;9.07;76.37;96085.40;1787243;80;20972;-65
2022/06/15 00:46:39;;;;;;;3.83;2.40;;;;;;;9.05;76.72;96077.94;1787124;80;21038;-65
2022/06/15 00:49:23;;;;;;;6.23;3.00;;;;;;;9.03;76.72;96078.38;1787215;80;20999;-65
2022/06/15 00:51:54;;;;;;;3.73;2.40;;;;;;;9.01;76.66;96076.19;1787275;80;21485;-65
2022/06/15 00:54:22;;;;;;;3.00;2.30;;;;;;;8.97;77.01;96078.42;1787340;80;21042;-65
2022/06/15 00:56:51;;;;;;;3.50;2.50;;;;;;;8.95;77.17;96085.90;1787182;80;21078;-65
2022/06/15 00:59:34;;;;;;;4.00;2.33;;;;;;;8.89;77.08;96076.25;1787269;80;21425;-65
2022/06/15 01:02:01;;;;;;;3.08;2.35;;;;;;;8.88;76.63;96078.01;1754744;80;20967;-66
2022/06/15 01:04:33;;;;;;;2.57;2.37;;;;;;;8.87;76.65;96081.53;1787153;80;20979;-66
2022/06/15 01:07:44;;;;;;;4.00;2.23;;;;;;;8.92;76.72;96080.20;1786779;80;21023;-65
2022/06/15 01:10:34;;;;;;;2.90;2.10;;;;;;;8.98;76.35;96077.53;1786544;80;21030;-66
2022/06/15 01:13:35;;;;;;;3.43;2.60;;;;;;;8.95;76.99;96074.05;1786900;80;21011;-65
2022/06/15 01:16:37;;;;;;;3.93;2.30;;;;;;;9.01;76.32;96072.70;1787162;80;21014;-65
2022/06/15 01:20:00;;;;;;;2.47;1.97;;;;;;;8.97;76.08;96078.42;1786805;80;21023;-65
2022/06/15 01:22:47;;;;;;;3.93;2.03;;;;;;;8.92;75.62;96077.58;1787470;80;20995;-65
2022/06/15 01:25:40;;;;;;;4.67;2.53;;;;;;;8.78;75.83;96074.11;1787352;80;21047;-66
2022/06/15 01:28:35;;;;;;;2.95;2.40;;;;;;;8.76;77.41;96079.81;1724883;80;21026;-65
2022/06/15 01:31:27;;;;;;;2.77;2.37;;;;;;;8.86;76.62;96074.95;1787193;80;21003;-65
2022/06/15 01:34:02;;;;;;;5.00;2.50;;;;;;;8.92;76.28;96071.41;1787145;80;21046;-65
2022/06/15 01:37:00;;;;;;;3.07;2.60;;;;;;;8.88;76.28;96077.14;1787187;80;21007;-65
2022/06/15 01:39:50;;;;;;;2.93;2.43;;;;;;;8.86;76.64;96078.90;1779784;80;21513;-65
2022/06/15 01:42:25;;;;;;;5.17;2.50;;;;;;;8.83;76.27;96080.23;1786837;80;21011;-65
2022/06/15 01:45:07;;;;;;;3.70;2.50;;;;;;;8.76;76.39;96073.23;1787174;80;21029;-65
2022/06/15 01:47:37;;;;;;;3.93;2.60;;;;;;;8.64;76.89;96084.26;1785479;80;21090;-65
2022/06/15 01:50:09;;;;;;;4.83;2.60;;;;;;;8.50;77.36;96079.47;1787242;80;21448;-65
2022/06/15 01:52:49;;;;;;;;;;;;;;;8.41;76.73;96075.09;1758157;80;21437;-65
2022/06/15 01:55:21;;;;;;;3.20;2.33;;;;;;;8.37;77.89;96081.67;1754246;80;20096;-65
2022/06/15 01:57:52;;;;;;;3.67;3.00;;;;;;;8.32;78.92;96079.05;1787320;80;21005;-65
2022/06/15 02:00:21;;;;;;;3.63;3.10;;;;;;;8.36;78.63;96079.45;1787209;80;21496;-65
2022/06/15 02:03:31;;;;;;;4.77;3.00;;;;;;;8.38;77.84;96079.45;1787103;80;21003;-65
2022/06/15 02:06:32;;;;;;;4.20;2.77;;;;;;;8.37;77.62;96076.41;1787288;80;21015;-65
2022/06/15 02:09:16;;;;;;;3.20;2.63;;;;;;;8.31;77.85;96081.66;1787073;80;20976;-65
2022/06/15 02:11:44;;;;;;;3.53;2.93;;;;;;;8.25;77.14;96073.36;1787187;80;20979;-65
2022/06/15 02:14:28;;;;;;;9.07;3.10;;;;;;;8.18;77.39;96077.73;1787216;80;20991;-65
2022/06/15 02:17:03;;;;;;;3.73;2.53;;;;;;;8.20;77.23;96074.67;1791711;80;21010;-65
2022/06/15 02:19:39;;;;;;;2.40;2.17;;;;;;;8.21;77.56;96080.80;1793719;80;21535;-65
2022/06/15 02:22:13;;;;;;;3.47;2.67;;;;;;;8.18;77.51;96085.63;1764658;80;20995;-65
2022/06/15 02:24:43;;;;;;;5.40;2.80;;;;;;;8.20;79.01;96083.00;1764621;80;20998;-65
2022/06/15 02:27:13;;;;;;;3.87;2.37;;;;;;;8.23;78.24;96087.80;1795609;80;20963;-65
2022/06/15 02:29:45;;;;;;;5.07;2.80;;;;;;;8.31;77.96;96092.18;1794296;80;21540;-65
2022/06/15 02:32:16;;;;;;;4.73;2.57;;;;;;;8.32;77.28;96098.77;1764527;80;21017;-65
2022/06/15 02:34:43;;;;;;;4.00;2.40;;;;;;;8.32;77.34;96094.81;1795341;80;21583;-65
2022/06/15 02:37:11;;;;;;;3.20;2.47;;;;;;;8.39;77.31;96095.66;1795437;80;21450;-65
2022/06/15 02:39:38;;;;;;;3.37;2.40;;;;;;;8.41;78.23;96099.20;1795508;80;21007;-65
2022/06/15 02:42:31;;;;;;;2.80;2.33;;;;;;;8.43;77.52;96097.00;1795646;80;21006;-65
2022/06/15 02:45:05;;;;;;;4.03;2.10;;;;;;;8.39;77.03;96096.97;1792873;80;21042;-65
2022/06/15 02:47:36;;;;;;;7.23;2.87;;;;;;;8.23;78.01;96098.32;1764763;80;21023;-65
2022/06/15 02:50:05;;;;;;;11.17;3.07;;;;;;;8.13;77.87;96103.59;1795465;80;21026;-65
2022/06/15 02:52:37;;;;;;;4.50;3.17;;;;;;;8.20;78.20;96098.33;1795571;80;20990;-65
2022/06/15 02:55:06;;;;;;;3.93;3.30;;;;;;;8.19;78.13;96097.91;1764205;80;20986;-65
2022/06/15 02:57:55;;;;;;;6.13;3.00;;;;;;;8.29;78.04;96108.39;1795546;80;21433;-66
2022/06/15 03:00:23;;;;;;;5.27;3.20;;;;;;;8.32;78.26;96110.59;1795212;80;21520;-66
2022/06/15 03:02:50;;;;;;;3.53;2.60;;;;;;;8.40;77.77;96110.61;1795378;80;21002;-65
2022/06/15 03:05:17;;;;;;;4.90;2.53;;;;;;;8.36;77.63;96108.81;1794771;80;21513;-65
2022/06/15 03:07:45;;;;;;;4.83;2.80;;;;;;;8.40;78.39;96115.42;1795453;80;21464;-65
2022/06/15 03:10:12;;;;;;;4.10;3.23;;;;;;;8.43;78.17;96109.28;1795689;80;20963;-65
2022/06/15 03:12:39;;;;;;;4.83;3.30;;;;;;;8.41;78.06;96122.42;1795309;80;21042;-66
2022/06/15 03:15:07;;;;;;;5.33;3.27;;;;;;;8.44;79.41;96120.22;1795464;80;21026;-65
2022/06/15 03:17:37;;;;;;;4.53;2.70;;;;;;;8.51;79.04;96120.66;1795464;80;21010;-65
2022/06/15 03:20:07;;;;;;;5.00;4.27;;;;;;;8.59;79.11;96118.91;1795097;80;21592;-66
2022/06/15 03:22:35;;;;;;;4.93;4.10;;;;;;;8.70;78.19;96124.13;1795512;80;21009;-65
2022/06/15 03:25:05;;;;;;;8.97;5.90;;;;;;;8.80;77.99;96121.04;1795141;80;21019;-65
2022/06/15 03:27:33;;;;;;;8.17;6.67;;;;;;;8.74;77.27;96118.41;1764446;80;21003;-65
2022/06/15 03:30:00;;;;;;;8.63;6.20;;;;;;;8.74;78.12;96125.85;1795426;80;20967;-65
2022/06/15 03:32:28;;;;;;;7.07;5.70;;;;;;;8.76;78.51;96119.28;1794851;80;21464;-65
2022/06/15 03:35:00;;;;;;;6.13;5.07;;;;;;;8.72;78.22;96125.42;1795298;80;21050;-65
2022/06/15 03:37:28;;;;;;;5.77;4.13;;;;;;;8.73;78.50;96123.25;1795397;80;20998;-66
2022/06/15 03:39:56;;;;;;;8.63;6.10;;;;;;;8.79;78.58;96125.84;1794057;80;21102;-65
2022/06/15 03:42:25;;;;;;;5.67;5.07;;;;;;;8.88;79.17;96117.93;1795495;80;21074;-65
2022/06/15 03:44:53;;;;;;;5.93;3.90;;;;;;;9.00;79.37;96114.39;1795503;80;21436;-65
2022/06/15 03:47:22;;;;;;;4.80;4.40;;;;;;;9.03;78.94;96119.19;1795281;80;20975;-65
2022/06/15 03:49:52;;;;;;;4.60;4.10;;;;;;;9.12;78.97;96118.70;1795278;80;20979;-65
2022/06/15 03:52:23;;;;;;;4.00;3.60;;;;;;;9.20;78.61;96117.80;1790397;80;21003;-65
2022/06/15 03:54:50;;;;;;;4.03;3.70;;;;;;;9.31;79.44;96118.61;1795372;80;21094;-65
2022/06/15 03:57:20;;;;;;;7.03;4.40;;;;;;;9.42;78.44;96123.81;1795279;80;20995;-65
2022/06/15 03:59:48;;;;;;;5.93;4.27;;;;;;;9.51;77.87;96122.89;1795451;80;21003;-66
2022/06/15 04:02:33;;;;;;;4.67;3.70;;;;;;;9.58;78.18;96119.34;1795186;80;21070;-66
2022/06/15 04:05:01;;;;;;;4.27;3.80;;;;;;;9.67;78.53;96128.48;1795363;80;20995;-65
2022/06/15 04:10:14;;;;;;;4.50;3.50;;;;;;;9.90;77.42;96127.45;1795522;80;20979;-66
2022/06/15 04:12:43;;;;;;;6.77;3.90;;;;;;;10.00;77.15;96122.54;1795365;80;21002;-65
2022/06/15 04:15:11;;;;;;;6.03;3.90;;;;;;;10.09;76.74;96126.43;1795407;80;21023;-65
2022/06/15 04:17:39;;;;;;;9.40;3.90;;;;;;;10.20;76.67;96125.02;1794648;80;21018;-66
2022/06/15 04:20:32;;;;;;;5.93;3.70;;;;;;;10.30;76.90;96129.35;1794704;80;21003;-65
2022/06/15 04:23:10;;;;;;;7.07;3.57;;;;;;;10.39;77.67;96137.19;1795097;80;21046;-66
2022/06/15 04:25:43;;;;;;;13.30;7.70;;;;;;;10.44;76.52;96131.02;1795588;80;21002;-65
2022/06/15 04:28:12;;;;;;;5.77;4.10;;;;;;;10.50;76.35;96134.90;1795539;80;21021;-65
2022/06/15 04:30:39;;;;;;;5.07;3.47;;;;;;;10.64;76.70;96136.09;1795258;80;21006;-65
2022/06/15 04:33:07;;;;;;;5.80;3.40;;;;;;;10.76;76.61;96130.24;1795574;80;21018;-66
2022/06/15 04:35:34;;;;;;;8.27;3.80;;;;;;;10.90;76.83;96133.17;1795341;80;20959;-65
2022/06/15 04:38:03;;;;;;;5.40;3.10;;;;;;;10.95;75.67;96128.25;1795586;80;21079;-66
2022/06/15 04:40:33;;;;;;;3.37;2.80;;;;;;;11.03;74.12;96126.84;1794575;80;21007;-65
2022/06/15 04:43:01;;;;;;;3.80;3.40;;;;;;;11.19;74.45;96126.23;1795376;80;21461;-65
2022/06/15 04:45:28;;;;;;;5.97;3.10;;;;;;;11.36;74.97;96122.90;1795459;80;20979;-66
2022/06/15 04:47:59;;;;;;;5.67;3.10;;;;;;;11.60;75.27;96121.70;1794862;80;21006;-65
2022/06/15 04:50:26;;;;;;;7.57;3.30;;;;;;;11.82;74.65;96122.73;1795106;80;21030;-66
2022/06/15 04:52:53;;;;;;;6.87;3.47;;;;;;;12.01;73.92;96124.20;1795426;80;21014;-66
2022/06/15 04:55:23;;;;;;;5.37;3.37;;;;;;;12.24;73.23;96122.97;1795097;80;21014;-66
2022/06/15 04:57:54;;;;;;;6.50;4.00;;;;;;;12.37;72.06;96124.49;1795338;80;20990;-66
2022/06/15 05:00:25;;;;;;;8.98;4.22;;;;;;;12.49;72.73;96125.61;1795607;80;21037;-66
2022/06/15 05:02:52;;;;;;;8.98;4.53;;;;;;;12.71;72.92;96126.56;1795520;80;20994;-65
2022/06/15 05:05:21;;;;;;;7.15;4.25;;;;;;;12.87;71.98;96128.47;1795158;80;21063;-66
2022/06/15 05:07:49;;;;;;;7.28;3.67;;;;;;;12.98;71.35;96126.50;1795401;80;21477;-65
2022/06/15 05:10:21;;;;;;;11.48;3.65;;;;;;;13.08;71.08;96129.39;1795538;80;21026;-66
2022/06/15 05:12:50;;;;;;;8.88;3.40;;;;;;;13.21;71.69;96131.34;1795172;80;21465;-66
2022/06/15 05:15:18;;;;;;;10.30;3.60;;;;;;;13.33;71.33;96127.58;1795362;80;21046;-66
2022/06/15 05:17:47;;;;;;;7.65;3.75;;;;;;;13.42;70.84;96129.58;1795015;80;21030;-66
2022/06/15 05:20:16;;;;;;;8.85;3.50;;;;;;;13.57;71.21;96131.50;1795431;80;21114;-66
2022/06/15 05:22:52;;;;;;;6.28;3.55;;;;;;;13.71;70.74;96125.45;1795850;80;20999;-66
2022/06/15 05:25:20;;;;;;;9.08;3.58;;;;;;;13.83;69.66;96130.48;1795640;80;20956;-65
2022/06/15 05:27:49;;;;;;;9.48;4.17;;;;;;;13.96;68.71;96132.81;1795889;80;21523;-65
2022/06/15 05:30:17;;;;;;;5.37;3.12;;;;;;;14.12;68.93;96133.36;1795696;80;21516;-65
2022/06/15 05:32:43;;;;;;;5.28;3.30;;;;;;;14.26;68.66;96129.46;1795509;80;20974;-65
2022/06/15 05:35:11;;;;;;;6.25;3.58;;;;;;;14.39;67.09;96135.77;1795379;80;21421;-65
2022/06/15 05:37:38;;;;;;;6.30;2.67;;;;;;;14.54;67.21;96132.79;1795501;80;21527;-65
2022/06/15 05:40:06;;;;;;;8.68;2.90;;;;;;;14.67;65.91;96130.22;1795460;80;20959;-66
2022/06/15 05:42:35;;;;;;;8.33;2.90;;;;;;;14.79;66.50;96130.37;1764626;80;21452;-66
2022/06/15 05:45:05;;;;;;;10.38;2.70;;;;;;;14.98;66.57;96125.88;1795313;80;21484;-66
2022/06/15 05:47:33;;;;;;;6.28;3.10;;;;;;;15.15;66.46;96125.82;1795497;80;21026;-66
2022/06/15 05:50:17;;;;;;;11.60;3.20;;;;;;;15.33;65.91;96123.56;1792554;80;20994;-66
2022/06/15 05:52:47;;;;;;;15.53;3.42;;;;;;;15.51;66.15;96124.34;1770536;80;21058;-65
2022/06/15 05:55:15;;;;;;;20.35;3.65;;;;;;;15.69;65.61;96124.72;1795265;80;20979;-65
2022/06/15 05:57:42;;;;;;;13.95;3.58;;;;;;;15.85;64.97;96122.48;1795426;80;21006;-66
2022/06/15 06:00:10;;;;;;;21.17;3.30;;;;;;;15.99;63.64;96118.47;1795581;80;21006;-65
2022/06/15 06:02:41;;;;;;;14.03;2.98;;;;;;;16.15;63.26;96120.21;1795486;80;20975;-66
2022/06/15 06:05:09;;;;;;;17.60;3.02;;;;;;;16.27;60.39;96122.05;1795529;80;21041;-65
2022/06/15 06:07:35;;;;;;;4.95;2.60;;;;;;;16.40;61.44;96115.39;1795290;80;21014;-65
2022/06/15 06:10:03;;;;;;;6.60;2.40;;;;;;;16.53;58.52;96114.08;1795529;80;21026;-66
2022/06/15 06:12:30;;;;;;;9.20;2.70;;;;;;;16.68;58.00;96118.46;1795421;80;20998;-66
2022/06/15 06:14:57;;;;;;;5.17;2.55;;;;;;;16.79;58.58;96118.55;1795358;80;21508;-66
2022/06/15 06:17:23;;;;;;;5.28;2.00;;;;;;;16.95;56.95;96114.01;1792841;80;21449;-65
2022/06/15 06:19:51;;;;;;;4.58;1.92;;;;;;;17.02;55.04;96111.53;1787030;80;20991;-66
2022/06/15 06:22:18;;;;;;;6.90;2.40;;;;;;;17.09;51.38;96111.27;1786828;80;21043;-65
2022/06/15 06:24:45;;;;;;;6.78;2.20;;;;;;;17.23;54.46;96112.55;1787278;80;21492;-65
2022/06/15 06:27:14;;;;;;;6.12;2.10;;;;;;;17.34;53.22;96114.37;1787326;80;20999;-65
2022/06/15 06:29:42;;;;;;;4.37;2.08;;;;;;;17.41;52.98;96112.33;1787074;80;21007;-66
2022/06/15 06:32:15;;;;;;;5.25;1.98;;;;;;;17.57;51.59;96118.84;1787180;80;21007;-65
2022/06/15 06:34:41;;;;;;;2.83;2.05;;;;;;;17.57;51.59;96118.84;1787461;80;20999;-66
2022/06/15 06:37:12;;;;;;;4.08;2.12;;;;;;;17.73;50.63;96119.13;1786919;80;20959;-66
2022/06/15 06:39:39;;;;;;;5.20;2.08;;;;;;;17.73;50.63;96119.13;1787325;80;21053;-65
2022/06/15 06:42:06;;;;;;;6.05;1.80;;;;;;;17.84;50.74;96114.73;1787405;80;21007;-66
2022/06/15 06:44:36;;;;;;;4.90;2.00;;;;;;;17.89;50.22;96111.41;1787214;80;21078;-65
2022/06/15 06:47:02;;;;;;;3.05;1.80;;;;;;;17.96;50.83;96118.26;1787111;80;20971;-66
2022/06/15 06:49:29;;;;;;;3.65;1.90;;;;;;;18.02;50.28;96118.51;1787036;80;21855;-66
2022/06/15 06:51:56;;;;;;;3.37;1.70;;;;;;;18.10;48.92;96113.72;1787130;80;20952;-66
2022/06/15 06:54:23;;;;;;;2.98;1.60;;;;;;;18.15;49.84;96118.42;1780164;80;21097;-65
2022/06/15 06:56:51;;;;;;;2.62;1.98;;;;;;;18.25;48.74;96117.11;1787195;80;21015;-66
2022/06/15 06:59:18;;;;;;;2.12;1.60;;;;;;;18.35;48.54;96114.47;1780164;80;21010;-66
2022/06/15 07:01:47;;;;;;;2.50;1.20;;;;;;;18.47;48.65;96116.22;1787033;80;21019;-65
2022/06/15 07:04:16;;;;;;;3.77;1.57;;;;;;;18.60;48.38;96116.13;1787068;80;21011;-65
2022/06/15 07:06:44;;;;;;;2.17;1.47;;;;;;;18.73;48.71;96118.68;1787090;80;21007;-66
2022/06/15 07:09:11;;;;;;;2.00;1.37;;;;;;;18.85;47.99;96113.32;1787204;80;21031;-65
2022/06/15 07:11:42;;;;;;;3.80;1.52;;;;;;;18.98;47.93;96110.98;1787220;80;20975;-65
2022/06/15 07:14:09;;;;;;;4.08;1.67;;;;;;;19.11;47.39;96104.16;1786942;80;21089;-65
2022/06/15 07:16:36;;;;;;;4.00;1.60;;;;;;;19.23;46.90;96106.77;1787100;80;20987;-66
2022/06/15 07:19:03;;;;;;;2.72;1.70;;;;;;;19.33;45.02;96100.06;1786741;80;21038;-66
2022/06/15 07:21:30;;;;;;;1.60;1.50;;;;;;;19.39;45.27;96106.45;1786893;80;20979;-66
2022/06/15 07:23:58;;;;;;;5.33;2.90;;;;;;;19.49;45.62;96109.59;1754362;80;21512;-66
2022/06/15 07:26:36;;;;;;;4.40;1.55;;;;;;;19.57;45.75;96109.23;1787142;80;21035;-66
2022/06/15 07:29:03;;;;;;;1.57;1.47;;;;;;;19.70;45.45;96106.42;1787127;80;21508;-65
2022/06/15 07:31:34;;;;;;;1.75;1.40;;;;;;;19.80;43.78;96106.39;1787224;80;20939;-66
2022/06/15 07:34:02;;;;;;;3.20;1.80;;;;;;;19.84;41.97;96105.79;1786903;80;20983;-66
2022/06/15 07:36:29;;;;;;;4.25;1.60;;;;;;;19.94;44.19;96103.08;1786966;80;21473;-66
2022/06/15 07:38:58;;;;;;;2.05;1.45;;;;;;;20.07;43.98;96099.34;1786681;80;21023;-65
2022/06/15 07:41:27;;;;;;;2.55;1.70;;;;;;;20.06;42.00;96105.65;1787221;80;20991;-66
2022/06/15 07:43:54;;;;;;;3.12;1.70;;;;;;;20.16;44.01;96106.05;1786784;80;21087;-66
2022/06/15 07:46:22;;;;;;;2.42;1.57;;;;;;;20.29;44.08;96104.53;1787162;80;20960;-66
2022/06/15 07:51:39;;;;;;;1.82;1.55;;;;;;;20.51;42.51;96105.66;1787310;80;20955;-66
2022/06/15 07:54:09;;;;;;;3.67;1.70;;;;;;;20.69;43.36;96108.81;1787050;80;20992;-66
2022/06/15 07:56:38;;;;;;;2.67;1.77;;;;;;;20.75;40.59;96103.12;1787378;80;20999;-66
2022/06/15 07:59:05;;;;;;;4.10;2.05;;;;;;;20.89;41.67;96102.44;1787019;80;21046;-66
2022/06/15 08:01:33;;;;;;;4.62;1.60;;;;;;;20.84;41.26;96099.13;1786983;80;20971;-66
2022/06/15 08:04:00;;;;;;;5.28;1.72;;;;;;;21.00;41.19;96095.66;1787342;80;20992;-66
2022/06/15 08:06:29;;;;;;;5.20;1.90;;;;;;;21.18;41.94;96098.23;1786806;80;21054;-66
2022/06/15 08:08:56;;;;;;;3.30;1.70;;;;;;;21.31;41.21;96101.13;1787252;80;21465;-66
2022/06/15 08:11:24;;;;;;;2.95;1.70;;;;;;;21.57;41.68;96097.10;1787108;80;21046;-66
2022/06/15 08:13:51;;;;;;;2.65;1.80;;;;;;;21.74;41.04;96096.16;1786912;80;20968;-66
2022/06/15 08:16:19;;;;;;;2.83;1.52;;;;;;;21.87;40.42;96093.66;1787166;80;21020;-66
2022/06/15 08:18:51;;;;;;;3.98;1.85;;;;;;;21.97;40.00;96088.65;1792391;80;21011;-66
2022/06/15 08:21:29;;;;;;;3.50;2.10;;;;;;;22.11;39.25;96092.78;1795141;80;21516;-66
2022/06/15 08:23:58;;;;;;;5.53;2.37;;;;;;;22.22;39.84;96093.06;1795032;80;21545;-66
2022/06/15 08:26:33;;;;;;;3.75;2.02;;;;;;;22.34;39.30;96088.81;1795407;80;21043;-66
2022/06/15 08:29:04;;;;;;;4.92;2.20;;;;;;;22.47;39.40;96087.62;1795285;80;21018;-66
2022/06/15 08:31:31;;;;;;;4.58;2.33;;;;;;;22.66;39.44;96081.58;1795463;80;20982;-66
2022/06/15 08:33:58;;;;;;;4.58;2.00;;;;;;;22.67;37.33;96079.26;1795593;80;20999;-66
2022/06/15 08:36:25;;;;;;;2.27;2.08;;;;;;;22.71;37.94;96086.69;1795173;80;21469;-66
2022/06/15 08:38:51;;;;;;;4.47;2.10;;;;;;;22.75;37.65;96086.88;1795397;80;21014;-66
2022/06/15 08:41:35;;;;;;;2.67;1.80;;;;;;;22.83;37.98;96088.66;1795512;80;21569;-66
2022/06/15 08:44:24;;;;;;;5.47;2.40;;;;;;;22.88;37.59;96083.87;1795445;80;21482;-66
2022/06/15 08:47:19;;;;;;;4.37;1.92;;;;;;;22.88;35.31;96081.63;1795108;80;20967;-66
2022/06/15 08:50:04;;;;;;;5.42;2.12;;;;;;;23.14;37.41;96082.80;1764085;80;21011;-66
2022/06/15 08:52:44;;;;;;;3.37;1.70;;;;;;;23.41;37.93;96080.26;1795094;80;20991;-66
2022/06/15 08:55:36;;;;;;;4.40;1.72;;;;;;;23.64;38.38;96084.70;1795631;80;21007;-66
2022/06/15 08:58:23;;;;;;;2.35;2.00;;;;;;;23.61;38.07;96078.13;1795693;80;21559;-66
2022/06/15 09:00:54;;;;;;;2.70;1.75;;;;;;;23.17;37.31;96082.61;1795352;80;20998;-66
2022/06/15 09:03:49;;;;;;;3.52;2.22;;;;;;;23.02;38.31;96083.55;1795466;80;21010;-66
2022/06/15 09:06:42;;;;;;;4.28;2.08;;;;;;;23.26;38.68;96076.68;1795674;80;21441;-66
2022/06/15 09:09:34;;;;;;;4.33;2.40;;;;;;;23.45;34.83;96076.39;1795713;80;21050;-66
2022/06/15 09:13:00;;;;;;;2.65;1.90;;;;;;;23.67;34.74;96081.31;1795647;80;20994;-66
2022/06/15 09:15:48;;;;;;;5.05;1.98;;;;;;;23.83;35.22;96077.68;1795605;80;20979;-66
2022/06/15 09:18:50;;;;;;;5.53;2.22;;;;;;;23.35;35.14;96083.80;1792675;80;20983;-66
2022/06/15 09:21:30;;;;;;;3.80;1.80;;;;;;;22.95;36.19;96087.04;1787272;80;20959;-66
2022/06/15 09:24:17;;;;;;;3.98;2.25;;;;;;;22.50;37.04;96102.72;1786874;80;21095;-66
2022/06/15 09:26:57;;;;;;;3.27;1.90;;;;;;;22.32;37.68;96096.09;1787327;80;21015;-66
2022/06/15 09:29:32;;;;;;;5.83;1.95;;;;;;;22.18;37.79;96094.17;1787371;80;21012;-66
2022/06/15 09:32:20;;;;;;;3.45;1.90;;;;;;;22.00;37.78;96097.42;1787141;80;21018;-66
2022/06/15 09:34:56;;;;;;;5.03;2.22;;;;;;;21.97;38.06;96096.71;1787281;80;21003;-66
2022/06/15 09:37:26;;;;;;;3.67;2.02;;;;;;;21.87;38.91;96096.34;1778255;80;21003;-66
2022/06/15 09:39:53;;;;;;;3.87;1.80;;;;;;;21.71;39.76;96094.99;1787066;80;21057;-66
2022/06/15 09:42:36;;;;;;;3.65;1.90;;;;;;;21.96;39.30;96091.81;1787315;80;21456;-66
2022/06/15 09:45:14;;;;;;;4.58;2.00;;;;;;;22.38;39.30;96089.04;1787293;80;21062;-66
2022/06/15 09:48:07;;;;;;;5.83;2.10;;;;;;;23.03;35.65;96081.23;1787256;80;21007;-66
2022/06/15 09:51:00;;;;;;;3.70;2.08;;;;;;;23.53;37.13;96075.91;1787407;80;20979;-66
2022/06/15 09:53:50;;;;;;;;;;;;;;;23.97;36.08;96077.19;1789683;80;21003;-66
2022/06/15 09:56:20;;;;;;;2.92;1.90;;;;;;;24.43;35.86;96081.41;1756322;82;20124;-66
2022/06/15 09:59:10;;;;;;;4.83;2.15;;;;;;;24.25;32.61;96081.28;1787303;80;21030;-66
2022/06/15 10:01:42;;;;;;;3.30;2.27;;;;;;;24.41;32.46;96078.80;1787117;80;21047;-66
2022/06/15 10:04:23;;;;;;;2.60;2.07;;;;;;;24.53;34.34;96079.02;1787678;80;20980;-66
2022/06/15 10:07:01;;;;;;;4.83;2.30;;;;;;;24.64;31.69;96075.59;1787160;80;21016;-66
2022/06/15 10:09:33;;;;;;;5.85;2.05;;;;;;;24.70;31.38;96070.66;1787252;80;20983;-66
2022/06/15 10:15:21;;;;;;;4.15;2.00;;;;;;;24.63;33.59;96078.78;1787192;80;21533;-66
2022/06/15 10:17:53;;;;;;;3.95;2.00;;;;;;;24.94;30.98;96068.61;1787281;80;21034;-66
2022/06/15 10:20:38;;;;;;;4.58;2.00;;;;;;;25.29;32.66;96068.05;1795497;80;21059;-66
2022/06/15 10:23:21;;;;;;;4.22;2.20;;;;;;;25.55;33.10;96072.50;1795143;80;21008;-66
2022/06/15 10:25:55;;;;;;;2.58;1.98;;;;;;;25.78;32.74;96064.11;1795571;80;21524;-66
2022/06/15 10:28:33;;;;;;;3.62;2.20;;;;;;;25.23;31.16;96063.45;1795508;80;20999;-66
2022/06/15 10:31:04;;;;;;;5.33;2.20;;;;;;;24.85;32.18;96066.06;1795658;80;21003;-66
2022/06/15 10:33:40;;;;;;;4.27;2.57;;;;;;;24.69;33.22;96064.86;1795858;80;20994;-66
2022/06/15 10:36:32;;;;;;;5.50;1.90;;;;;;;24.95;33.17;96064.95;1795431;80;21006;-66
2022/06/15 10:39:07;;;;;;;4.28;2.20;;;;;;;24.98;31.87;96060.69;1795457;80;21471;-66
2022/06/15 10:41:47;;;;;;;5.42;2.60;;;;;;;24.61;32.22;96060.47;1795494;80;21457;-66
2022/06/15 10:44:30;;;;;;;5.17;2.30;;;;;;;24.32;32.83;96065.09;1795539;80;21512;-66
2022/06/15 10:47:08;;;;;;;4.70;2.30;;;;;;;24.79;32.32;96065.11;1795221;80;21010;-66
2022/06/15 10:49:40;;;;;;;3.42;2.85;;;;;;;25.32;33.74;96052.48;1795087;80;21030;-66
2022/06/15 10:52:32;;;;;;;4.37;2.75;;;;;;;25.51;31.64;96060.66;1794598;80;21050;-65
2022/06/15 11:04:22;;;;;;;4.42;2.67;;;;;;;24.48;33.49;96061.78;1795286;80;21066;-66
2022/06/15 11:07:03;;;;;;;4.10;2.40;;;;;;;24.19;33.61;96060.50;1795704;80;21014;-66
2022/06/15 11:09:37;;;;;;;2.85;2.50;;;;;;;23.91;34.02;96062.77;1795365;80;20995;-65
2022/06/15 11:12:35;;;;;;;6.25;2.33;;;;;;;23.75;35.12;96049.88;1793874;80;21511;-66
2022/06/15 11:15:16;;;;;;;5.22;2.40;;;;;;;24.15;37.76;96052.70;1795519;80;21504;-66
2022/06/15 11:18:05;;;;;;;10.95;2.50;;;;;;;24.63;35.24;96048.24;1795407;80;21558;-66
2022/06/15 11:20:47;;;;;;;3.25;2.10;;;;;;;24.49;33.50;96044.61;1795255;80;21069;-66
2022/06/15 11:23:48;;;;;;;5.08;2.37;;;;;;;24.18;35.05;96052.50;1795433;80;21021;-66
2022/06/15 11:29:54;;;;;;;5.93;2.37;;;;;;;24.07;34.80;96053.69;1795575;80;21527;-66
2022/06/15 11:32:41;;;;;;;4.65;2.35;;;;;;;24.77;34.58;96045.00;1795381;80;21517;-66
2022/06/15 11:35:28;;;;;;;4.12;2.08;;;;;;;25.20;33.09;96046.58;1795754;80;21058;-66
2022/06/15 11:38:34;;;;;;;5.42;2.25;;;;;;;25.01;32.45;96034.33;1795260;80;21066;-66
2022/06/15 11:41:15;;;;;;;5.30;2.25;;;;;;;24.49;33.84;96041.06;1795854;80;21034;-66
2022/06/15 11:43:45;;;;;;;5.12;2.00;;;;;;;24.21;33.31;96046.03;1795524;80;20994;-66
2022/06/15 11:46:26;;;;;;;6.85;2.22;;;;;;;24.19;34.81;96049.71;1795323;80;21037;-66
2022/06/15 11:49:11;;;;;;;4.40;2.27;;;;;;;24.07;34.64;96043.77;1795553;80;21555;-65
2022/06/15 11:52:05;;;;;;;5.65;2.45;;;;;;;24.05;35.14;96043.00;1794995;80;21079;-66
2022/06/15 11:54:43;;;;;;;5.03;2.22;;;;;;;24.54;35.02;96036.22;1794435;80;21022;-66
2022/06/15 11:57:55;;;;;;;3.52;2.27;;;;;;;24.60;32.89;96037.17;1795255;80;20999;-66
2022/06/15 12:00:45;;;;;;;4.67;2.00;;;;;;;24.28;33.57;96041.98;1795482;80;21014;-66
2022/06/15 12:03:54;;;;;;;7.65;2.50;;;;;;;24.23;34.32;96038.23;1766957;80;20962;-66
2022/06/15 12:06:29;;;;;;;4.00;2.33;;;;;;;24.90;34.23;96027.97;1795135;80;21513;-66
2022/06/15 12:09:24;;;;;;;3.05;1.92;;;;;;;25.71;32.97;96027.67;1795386;80;20978;-66
2022/06/15 12:15:08;;;;;;;6.15;2.35;;;;;;;25.93;32.82;96019.38;1795773;80;20969;-66
2022/06/15 12:18:17;;;;;;;10.08;2.52;;;;;;;26.45;32.45;96021.79;1795356;80;21014;-66
2022/06/15 12:21:25;;;;;;;2.75;2.12;;;;;;;27.24;30.10;96022.16;1786821;80;21062;-66
2022/06/15 12:24:20;;;;;;;3.52;2.08;;;;;;;27.69;29.86;96023.53;1786891;80;20971;-66
2022/06/15 12:27:04;;;;;;;5.35;2.58;;;;;;;27.08;29.23;96023.79;1787000;80;21018;-66
2022/06/15 12:29:45;;;;;;;3.50;2.00;;;;;;;27.34;31.54;96020.45;1787180;80;21055;-66
2022/06/15 12:32:36;;;;;;;3.00;1.90;;;;;;;28.28;29.59;96019.70;1787177;80;21441;-66
2022/06/15 12:35:23;;;;;;;7.55;2.10;;;;;;;28.93;27.42;96008.41;1787176;80;21006;-66
2022/06/15 12:38:23;;;;;;;4.42;2.30;;;;;;;28.50;27.21;96011.15;1786715;80;21059;-66
2022/06/15 12:41:07;;;;;;;2.98;2.00;;;;;;;27.75;28.42;96014.07;1787255;80;20961;-66